sensor_id;sensor_type;location;lat;lon;timestamp;P1;durP1;ratioP1;P2;durP2;ratioP2
25409;SDS011;13339;50.840;4.346;2022-10-26T00:01:28;5.60;;;2.60;;
25409;SDS011;13339;50.840;4.346;2022-10-26T00:03:54;5.97;;;2.63;;
25409;SDS011;13339;50.840;4.346;2022-10-26T00:06:22;7.87;;;2.77;;
25409;SDS011;13339;50.840;4.346;2022-10-26T00:08:49;4.93;;;2.40;;
25409;SDS011;13339;50.840;4.346;2022-10-26T00:11:15;6.73;;;2.60;;
25409;SDS011;13339;50.840;4.346;2022-10-26T00:13:42;7.67;;;2.47;;
25409;SDS011;13339;50.840;4.346;2022-10-26T00:16:09;8.03;;;2.57;;
25409;SDS011;13339;50.840;4.346;2022-10-26T00:18:37;8.77;;;3.13;;
25409;SDS011;13339;50.840;4.346;2022-10-26T00:21:04;7.40;;;2.60;;
25409;SDS011;13339;50.840;4.346;2022-10-26T00:23:31;9.60;;;2.60;;
25409;SDS011;13339;50.840;4.346;2022-10-26T00:25:57;5.00;;;2.27;;
25409;SDS011;13339;50.840;4.346;2022-10-26T00:28:23;5.27;;;2.50;;
25409;SDS011;13339;50.840;4.346;2022-10-26T00:30:48;17.33;;;2.83;;
25409;SDS011;13339;50.840;4.346;2022-10-26T00:33:14;9.77;;;2.60;;
25409;SDS011;13339;50.840;4.346;2022-10-26T00:35:40;4.13;;;1.97;;
25409;SDS011;13339;50.840;4.346;2022-10-26T00:38:06;9.73;;;2.67;;
25409;SDS011;13339;50.840;4.346;2022-10-26T00:40:32;12.13;;;2.20;;
25409;SDS011;13339;50.840;4.346;2022-10-26T00:42:57;9.07;;;2.30;;
25409;SDS011;13339;50.840;4.346;2022-10-26T00:45:26;7.27;;;2.13;;
25409;SDS011;13339;50.840;4.346;2022-10-26T00:47:55;5.07;;;2.10;;
25409;SDS011;13339;50.840;4.346;2022-10-26T00:50:38;8.30;;;2.30;;
25409;SDS011;13339;50.840;4.346;2022-10-26T00:53:08;11.20;;;2.40;;
25409;SDS011;13339;50.840;4.346;2022-10-26T00:55:39;4.53;;;1.90;;
25409;SDS011;13339;50.840;4.346;2022-10-26T00:58:08;5.77;;;2.13;;
25409;SDS011;13339;50.840;4.346;2022-10-26T01:00:35;9.20;;;2.50;;
25409;SDS011;13339;50.840;4.346;2022-10-26T01:03:03;4.53;;;2.20;;
25409;SDS011;13339;50.840;4.346;2022-10-26T01:05:31;5.30;;;2.20;;
25409;SDS011;13339;50.840;4.346;2022-10-26T01:07:58;4.93;;;2.10;;
25409;SDS011;13339;50.840;4.346;2022-10-26T01:10:24;7.80;;;2.73;;
25409;SDS011;13339;50.840;4.346;2022-10-26T01:12:51;6.87;;;2.10;;
25409;SDS011;13339;50.840;4.346;2022-10-26T01:15:19;5.53;;;1.70;;
25409;SDS011;13339;50.840;4.346;2022-10-26T01:23:08;5.17;;;1.80;;
25409;SDS011;13339;50.840;4.346;2022-10-26T01:31:29;5.20;;;1.73;;
25409;SDS011;13339;50.840;4.346;2022-10-26T01:34:16;3.93;;;1.63;;
25409;SDS011;13339;50.840;4.346;2022-10-26T01:36:57;3.00;;;1.80;;
25409;SDS011;13339;50.840;4.346;2022-10-26T01:39:41;5.70;;;1.80;;
25409;SDS011;13339;50.840;4.346;2022-10-26T01:42:22;3.60;;;1.70;;
25409;SDS011;13339;50.840;4.346;2022-10-26T01:44:56;5.77;;;1.80;;
25409;SDS011;13339;50.840;4.346;2022-10-26T01:47:26;7.83;;;1.90;;
25409;SDS011;13339;50.840;4.346;2022-10-26T01:49:57;14.10;;;1.80;;
25409;SDS011;13339;50.840;4.346;2022-10-26T01:52:24;5.03;;;1.77;;
25409;SDS011;13339;50.840;4.346;2022-10-26T01:54:50;4.13;;;2.00;;
25409;SDS011;13339;50.840;4.346;2022-10-26T01:57:17;4.43;;;1.80;;
25409;SDS011;13339;50.840;4.346;2022-10-26T01:59:59;3.83;;;1.53;;
25409;SDS011;13339;50.840;4.346;2022-10-26T02:02:33;6.97;;;1.70;;
25409;SDS011;13339;50.840;4.346;2022-10-26T02:05:14;3.60;;;1.60;;
25409;SDS011;13339;50.840;4.346;2022-10-26T02:10:52;7.40;;;1.50;;
25409;SDS011;13339;50.840;4.346;2022-10-26T02:16:11;4.40;;;1.50;;
25409;SDS011;13339;50.840;4.346;2022-10-26T02:21:18;4.10;;;1.33;;
25409;SDS011;13339;50.840;4.346;2022-10-26T02:23:46;3.93;;;1.50;;
25409;SDS011;13339;50.840;4.346;2022-10-26T02:26:17;6.27;;;1.63;;
25409;SDS011;13339;50.840;4.346;2022-10-26T02:28:47;6.40;;;1.50;;
25409;SDS011;13339;50.840;4.346;2022-10-26T02:31:15;4.77;;;1.80;;
25409;SDS011;13339;50.840;4.346;2022-10-26T02:33:43;6.33;;;1.40;;
25409;SDS011;13339;50.840;4.346;2022-10-26T02:36:20;3.93;;;1.17;;
25409;SDS011;13339;50.840;4.346;2022-10-26T02:38:50;4.87;;;1.87;;
25409;SDS011;13339;50.840;4.346;2022-10-26T02:41:18;5.90;;;1.60;;
25409;SDS011;13339;50.840;4.346;2022-10-26T02:43:47;2.47;;;1.30;;
25409;SDS011;13339;50.840;4.346;2022-10-26T02:46:18;4.27;;;1.80;;
25409;SDS011;13339;50.840;4.346;2022-10-26T02:48:46;3.23;;;1.30;;
25409;SDS011;13339;50.840;4.346;2022-10-26T02:56:55;3.67;;;1.30;;
25409;SDS011;13339;50.840;4.346;2022-10-26T02:59:24;2.93;;;1.53;;
25409;SDS011;13339;50.840;4.346;2022-10-26T03:01:54;5.90;;;2.00;;
25409;SDS011;13339;50.840;4.346;2022-10-26T03:04:26;2.97;;;1.10;;
25409;SDS011;13339;50.840;4.346;2022-10-26T03:06:53;2.90;;;1.30;;
25409;SDS011;13339;50.840;4.346;2022-10-26T03:09:19;3.67;;;1.67;;
25409;SDS011;13339;50.840;4.346;2022-10-26T03:11:45;6.23;;;1.90;;
25409;SDS011;13339;50.840;4.346;2022-10-26T03:14:11;5.20;;;1.50;;
25409;SDS011;13339;50.840;4.346;2022-10-26T03:16:36;5.00;;;1.60;;
25409;SDS011;13339;50.840;4.346;2022-10-26T03:19:02;7.50;;;1.33;;
25409;SDS011;13339;50.840;4.346;2022-10-26T03:21:27;4.30;;;1.47;;
25409;SDS011;13339;50.840;4.346;2022-10-26T03:23:53;3.37;;;1.40;;
25409;SDS011;13339;50.840;4.346;2022-10-26T03:26:18;5.27;;;1.50;;
25409;SDS011;13339;50.840;4.346;2022-10-26T03:28:44;4.33;;;1.57;;
25409;SDS011;13339;50.840;4.346;2022-10-26T03:31:10;2.43;;;1.30;;
25409;SDS011;13339;50.840;4.346;2022-10-26T03:33:35;3.77;;;1.37;;
25409;SDS011;13339;50.840;4.346;2022-10-26T03:36:01;2.77;;;1.67;;
25409;SDS011;13339;50.840;4.346;2022-10-26T03:38:27;5.30;;;1.60;;
25409;SDS011;13339;50.840;4.346;2022-10-26T03:40:52;6.33;;;1.60;;
25409;SDS011;13339;50.840;4.346;2022-10-26T03:43:18;3.37;;;1.50;;
25409;SDS011;13339;50.840;4.346;2022-10-26T03:45:44;5.17;;;2.07;;
25409;SDS011;13339;50.840;4.346;2022-10-26T03:48:09;4.90;;;1.80;;
25409;SDS011;13339;50.840;4.346;2022-10-26T03:50:35;3.53;;;1.60;;
25409;SDS011;13339;50.840;4.346;2022-10-26T03:53:01;4.70;;;1.70;;
25409;SDS011;13339;50.840;4.346;2022-10-26T03:55:26;4.00;;;1.57;;
25409;SDS011;13339;50.840;4.346;2022-10-26T03:57:52;7.23;;;1.60;;
25409;SDS011;13339;50.840;4.346;2022-10-26T04:00:17;3.23;;;1.60;;
25409;SDS011;13339;50.840;4.346;2022-10-26T04:02:44;6.60;;;1.93;;
25409;SDS011;13339;50.840;4.346;2022-10-26T04:05:12;6.13;;;2.30;;
25409;SDS011;13339;50.840;4.346;2022-10-26T04:07:38;7.93;;;2.37;;
25409;SDS011;13339;50.840;4.346;2022-10-26T04:10:04;7.17;;;2.37;;
25409;SDS011;13339;50.840;4.346;2022-10-26T04:12:30;2.80;;;1.87;;
25409;SDS011;13339;50.840;4.346;2022-10-26T04:14:56;4.17;;;2.20;;
25409;SDS011;13339;50.840;4.346;2022-10-26T04:17:22;5.43;;;2.70;;
25409;SDS011;13339;50.840;4.346;2022-10-26T04:19:49;6.17;;;2.30;;
25409;SDS011;13339;50.840;4.346;2022-10-26T04:22:14;7.03;;;2.30;;
25409;SDS011;13339;50.840;4.346;2022-10-26T04:24:40;7.53;;;2.67;;
25409;SDS011;13339;50.840;4.346;2022-10-26T04:27:05;5.03;;;2.30;;
25409;SDS011;13339;50.840;4.346;2022-10-26T04:29:31;3.93;;;2.60;;
25409;SDS011;13339;50.840;4.346;2022-10-26T04:31:57;8.73;;;2.00;;
25409;SDS011;13339;50.840;4.346;2022-10-26T04:34:22;4.80;;;2.07;;
25409;SDS011;13339;50.840;4.346;2022-10-26T04:36:48;5.20;;;2.20;;
25409;SDS011;13339;50.840;4.346;2022-10-26T04:39:13;5.60;;;2.03;;
25409;SDS011;13339;50.840;4.346;2022-10-26T04:41:39;2.40;;;1.70;;
25409;SDS011;13339;50.840;4.346;2022-10-26T04:44:04;3.97;;;2.17;;
25409;SDS011;13339;50.840;4.346;2022-10-26T04:46:30;4.13;;;2.30;;
25409;SDS011;13339;50.840;4.346;2022-10-26T04:48:55;7.57;;;1.90;;
25409;SDS011;13339;50.840;4.346;2022-10-26T04:51:21;5.80;;;2.30;;
25409;SDS011;13339;50.840;4.346;2022-10-26T04:53:47;6.23;;;2.40;;
25409;SDS011;13339;50.840;4.346;2022-10-26T04:56:12;8.53;;;3.30;;
25409;SDS011;13339;50.840;4.346;2022-10-26T04:58:38;6.50;;;2.90;;
25409;SDS011;13339;50.840;4.346;2022-10-26T05:01:03;3.73;;;2.53;;
25409;SDS011;13339;50.840;4.346;2022-10-26T05:03:29;7.77;;;2.93;;
25409;SDS011;13339;50.840;4.346;2022-10-26T05:05:57;8.70;;;2.50;;
25409;SDS011;13339;50.840;4.346;2022-10-26T05:08:23;5.20;;;2.50;;
25409;SDS011;13339;50.840;4.346;2022-10-26T05:10:50;5.17;;;3.03;;
25409;SDS011;13339;50.840;4.346;2022-10-26T05:13:16;5.20;;;2.70;;
25409;SDS011;13339;50.840;4.346;2022-10-26T05:15:42;5.73;;;2.43;;
25409;SDS011;13339;50.840;4.346;2022-10-26T05:18:07;7.43;;;2.40;;
25409;SDS011;13339;50.840;4.346;2022-10-26T05:20:33;11.13;;;2.77;;
25409;SDS011;13339;50.840;4.346;2022-10-26T05:23:01;7.97;;;2.40;;
25409;SDS011;13339;50.840;4.346;2022-10-26T05:25:29;6.93;;;2.40;;
25409;SDS011;13339;50.840;4.346;2022-10-26T05:27:58;7.03;;;2.30;;
25409;SDS011;13339;50.840;4.346;2022-10-26T05:30:28;4.70;;;2.80;;
25409;SDS011;13339;50.840;4.346;2022-10-26T05:32:55;4.97;;;2.03;;
25409;SDS011;13339;50.840;4.346;2022-10-26T05:35:22;7.23;;;2.50;;
25409;SDS011;13339;50.840;4.346;2022-10-26T05:37:48;5.73;;;2.73;;
25409;SDS011;13339;50.840;4.346;2022-10-26T05:40:13;5.83;;;2.90;;
25409;SDS011;13339;50.840;4.346;2022-10-26T05:42:41;7.30;;;2.20;;
25409;SDS011;13339;50.840;4.346;2022-10-26T05:45:06;4.90;;;2.50;;
25409;SDS011;13339;50.840;4.346;2022-10-26T05:47:36;5.37;;;2.40;;
25409;SDS011;13339;50.840;4.346;2022-10-26T05:50:03;6.47;;;2.30;;
25409;SDS011;13339;50.840;4.346;2022-10-26T05:52:29;6.37;;;2.43;;
25409;SDS011;13339;50.840;4.346;2022-10-26T05:54:54;7.77;;;2.40;;
25409;SDS011;13339;50.840;4.346;2022-10-26T05:57:20;5.90;;;2.50;;
25409;SDS011;13339;50.840;4.346;2022-10-26T05:59:46;10.23;;;3.07;;
25409;SDS011;13339;50.840;4.346;2022-10-26T06:02:22;6.73;;;2.77;;
25409;SDS011;13339;50.840;4.346;2022-10-26T06:04:57;4.47;;;3.00;;
25409;SDS011;13339;50.840;4.346;2022-10-26T06:07:29;6.87;;;2.63;;
25409;SDS011;13339;50.840;4.346;2022-10-26T06:09:55;10.37;;;3.07;;
25409;SDS011;13339;50.840;4.346;2022-10-26T06:12:21;5.17;;;2.83;;
25409;SDS011;13339;50.840;4.346;2022-10-26T06:14:49;6.50;;;2.83;;
25409;SDS011;13339;50.840;4.346;2022-10-26T06:17:31;9.27;;;3.10;;
25409;SDS011;13339;50.840;4.346;2022-10-26T06:31:27;6.13;;;3.10;;
25409;SDS011;13339;50.840;4.346;2022-10-26T06:33:55;5.90;;;2.83;;
25409;SDS011;13339;50.840;4.346;2022-10-26T06:36:24;6.50;;;2.90;;
25409;SDS011;13339;50.840;4.346;2022-10-26T06:38:57;10.03;;;2.90;;
25409;SDS011;13339;50.840;4.346;2022-10-26T06:41:26;8.57;;;2.97;;
25409;SDS011;13339;50.840;4.346;2022-10-26T06:43:52;6.37;;;3.00;;
25409;SDS011;13339;50.840;4.346;2022-10-26T06:49:07;4.87;;;2.83;;
25409;SDS011;13339;50.840;4.346;2022-10-26T06:54:47;10.47;;;3.53;;
25409;SDS011;13339;50.840;4.346;2022-10-26T06:57:15;8.67;;;3.17;;
25409;SDS011;13339;50.840;4.346;2022-10-26T06:59:44;8.73;;;2.77;;
25409;SDS011;13339;50.840;4.346;2022-10-26T07:02:14;10.37;;;3.00;;
25409;SDS011;13339;50.840;4.346;2022-10-26T07:04:40;5.93;;;3.23;;
25409;SDS011;13339;50.840;4.346;2022-10-26T07:07:13;8.63;;;3.13;;
25409;SDS011;13339;50.840;4.346;2022-10-26T07:09:41;6.30;;;2.70;;
25409;SDS011;13339;50.840;4.346;2022-10-26T07:12:07;10.93;;;2.50;;
25409;SDS011;13339;50.840;4.346;2022-10-26T07:14:33;12.13;;;2.70;;
25409;SDS011;13339;50.840;4.346;2022-10-26T07:16:58;7.03;;;2.80;;
25409;SDS011;13339;50.840;4.346;2022-10-26T07:19:24;5.17;;;2.60;;
25409;SDS011;13339;50.840;4.346;2022-10-26T07:21:50;7.70;;;2.50;;
25409;SDS011;13339;50.840;4.346;2022-10-26T07:24:17;6.97;;;2.93;;
25409;SDS011;13339;50.840;4.346;2022-10-26T07:26:43;9.20;;;2.80;;
25409;SDS011;13339;50.840;4.346;2022-10-26T07:29:09;6.63;;;2.80;;
25409;SDS011;13339;50.840;4.346;2022-10-26T07:31:34;7.30;;;3.10;;
25409;SDS011;13339;50.840;4.346;2022-10-26T07:34:00;12.00;;;2.87;;
25409;SDS011;13339;50.840;4.346;2022-10-26T07:36:27;8.87;;;2.97;;
25409;SDS011;13339;50.840;4.346;2022-10-26T07:38:53;5.50;;;3.10;;
25409;SDS011;13339;50.840;4.346;2022-10-26T07:41:19;4.37;;;2.60;;
25409;SDS011;13339;50.840;4.346;2022-10-26T07:43:44;9.23;;;3.10;;
25409;SDS011;13339;50.840;4.346;2022-10-26T07:46:11;10.03;;;3.00;;
25409;SDS011;13339;50.840;4.346;2022-10-26T07:48:36;7.17;;;2.53;;
25409;SDS011;13339;50.840;4.346;2022-10-26T07:51:03;7.63;;;2.70;;
25409;SDS011;13339;50.840;4.346;2022-10-26T07:53:29;8.93;;;2.83;;
25409;SDS011;13339;50.840;4.346;2022-10-26T07:55:55;8.70;;;2.90;;
25409;SDS011;13339;50.840;4.346;2022-10-26T07:58:22;6.33;;;2.53;;
25409;SDS011;13339;50.840;4.346;2022-10-26T08:00:50;9.77;;;3.10;;
25409;SDS011;13339;50.840;4.346;2022-10-26T08:03:16;7.50;;;3.20;;
25409;SDS011;13339;50.840;4.346;2022-10-26T08:05:44;7.23;;;2.87;;
25409;SDS011;13339;50.840;4.346;2022-10-26T08:08:11;5.67;;;2.80;;
25409;SDS011;13339;50.840;4.346;2022-10-26T08:10:40;5.10;;;2.57;;
25409;SDS011;13339;50.840;4.346;2022-10-26T08:13:07;13.17;;;3.00;;
25409;SDS011;13339;50.840;4.346;2022-10-26T08:15:33;7.93;;;2.87;;
25409;SDS011;13339;50.840;4.346;2022-10-26T08:17:59;10.07;;;2.93;;
25409;SDS011;13339;50.840;4.346;2022-10-26T08:20:24;9.33;;;3.00;;
25409;SDS011;13339;50.840;4.346;2022-10-26T08:22:50;6.83;;;2.80;;
25409;SDS011;13339;50.840;4.346;2022-10-26T08:25:16;8.73;;;3.20;;
25409;SDS011;13339;50.840;4.346;2022-10-26T08:27:42;7.13;;;2.50;;
25409;SDS011;13339;50.840;4.346;2022-10-26T08:30:08;7.87;;;2.93;;
25409;SDS011;13339;50.840;4.346;2022-10-26T08:32:34;7.07;;;3.00;;
25409;SDS011;13339;50.840;4.346;2022-10-26T08:34:59;10.90;;;3.07;;
25409;SDS011;13339;50.840;4.346;2022-10-26T08:37:25;14.23;;;3.13;;
25409;SDS011;13339;50.840;4.346;2022-10-26T08:39:51;9.37;;;2.80;;
25409;SDS011;13339;50.840;4.346;2022-10-26T08:42:18;7.00;;;2.77;;
25409;SDS011;13339;50.840;4.346;2022-10-26T08:44:52;8.23;;;2.80;;
25409;SDS011;13339;50.840;4.346;2022-10-26T08:47:30;9.20;;;2.90;;
25409;SDS011;13339;50.840;4.346;2022-10-26T08:52:52;13.47;;;2.97;;
25409;SDS011;13339;50.840;4.346;2022-10-26T08:55:32;8.13;;;2.77;;
25409;SDS011;13339;50.840;4.346;2022-10-26T08:58:20;9.13;;;3.27;;
25409;SDS011;13339;50.840;4.346;2022-10-26T09:00:50;11.03;;;2.70;;
25409;SDS011;13339;50.840;4.346;2022-10-26T09:03:17;5.87;;;2.13;;
25409;SDS011;13339;50.840;4.346;2022-10-26T09:11:48;10.27;;;2.50;;
25409;SDS011;13339;50.840;4.346;2022-10-26T09:21:24;9.77;;;2.70;;
25409;SDS011;13339;50.840;4.346;2022-10-26T09:24:24;7.57;;;2.50;;
25409;SDS011;13339;50.840;4.346;2022-10-26T09:27:33;8.83;;;2.43;;
25409;SDS011;13339;50.840;4.346;2022-10-26T09:30:03;7.30;;;2.07;;
25409;SDS011;13339;50.840;4.346;2022-10-26T09:32:48;7.30;;;2.40;;
25409;SDS011;13339;50.840;4.346;2022-10-26T09:37:56;8.03;;;2.77;;
25409;SDS011;13339;50.840;4.346;2022-10-26T09:41:26;9.57;;;3.03;;
25409;SDS011;13339;50.840;4.346;2022-10-26T09:46:06;15.57;;;2.97;;
25409;SDS011;13339;50.840;4.346;2022-10-26T09:48:42;5.80;;;2.23;;
25409;SDS011;13339;50.840;4.346;2022-10-26T09:51:15;8.33;;;2.23;;
25409;SDS011;13339;50.840;4.346;2022-10-26T09:53:42;8.23;;;1.90;;
25409;SDS011;13339;50.840;4.346;2022-10-26T09:56:11;5.27;;;2.00;;
25409;SDS011;13339;50.840;4.346;2022-10-26T09:58:54;7.07;;;2.20;;
25409;SDS011;13339;50.840;4.346;2022-10-26T10:06:45;7.00;;;2.20;;
25409;SDS011;13339;50.840;4.346;2022-10-26T10:09:13;7.37;;;2.27;;
25409;SDS011;13339;50.840;4.346;2022-10-26T10:14:11;6.00;;;1.80;;
25409;SDS011;13339;50.840;4.346;2022-10-26T10:16:54;5.03;;;2.13;;
25409;SDS011;13339;50.840;4.346;2022-10-26T10:19:25;4.03;;;2.20;;
25409;SDS011;13339;50.840;4.346;2022-10-26T10:21:53;9.50;;;2.40;;
25409;SDS011;13339;50.840;4.346;2022-10-26T10:27:01;7.17;;;2.27;;
25409;SDS011;13339;50.840;4.346;2022-10-26T10:29:27;8.93;;;2.57;;
25409;SDS011;13339;50.840;4.346;2022-10-26T10:31:55;5.67;;;2.67;;
25409;SDS011;13339;50.840;4.346;2022-10-26T10:34:22;3.50;;;1.87;;
25409;SDS011;13339;50.840;4.346;2022-10-26T10:36:48;9.43;;;1.90;;
25409;SDS011;13339;50.840;4.346;2022-10-26T10:41:55;6.03;;;1.90;;
25409;SDS011;13339;50.840;4.346;2022-10-26T10:44:23;5.37;;;1.57;;
25409;SDS011;13339;50.840;4.346;2022-10-26T10:47:03;7.87;;;1.60;;
25409;SDS011;13339;50.840;4.346;2022-10-26T10:49:30;8.63;;;2.03;;
25409;SDS011;13339;50.840;4.346;2022-10-26T10:51:57;15.00;;;2.13;;
25409;SDS011;13339;50.840;4.346;2022-10-26T10:54:29;6.03;;;1.83;;
25409;SDS011;13339;50.840;4.346;2022-10-26T11:05:37;6.70;;;2.00;;
25409;SDS011;13339;50.840;4.346;2022-10-26T11:08:14;6.07;;;2.00;;
25409;SDS011;13339;50.840;4.346;2022-10-26T11:11:12;8.30;;;2.10;;
25409;SDS011;13339;50.840;4.346;2022-10-26T11:13:46;6.03;;;2.63;;
25409;SDS011;13339;50.840;4.346;2022-10-26T11:16:41;10.90;;;2.33;;
25409;SDS011;13339;50.840;4.346;2022-10-26T11:21:57;4.53;;;2.23;;
25409;SDS011;13339;50.840;4.346;2022-10-26T11:27:34;13.17;;;2.30;;
25409;SDS011;13339;50.840;4.346;2022-10-26T11:40:21;7.80;;;2.10;;
25409;SDS011;13339;50.840;4.346;2022-10-26T11:45:35;6.77;;;2.20;;
25409;SDS011;13339;50.840;4.346;2022-10-26T11:48:15;5.57;;;2.00;;
25409;SDS011;13339;50.840;4.346;2022-10-26T11:51:08;7.20;;;2.20;;
25409;SDS011;13339;50.840;4.346;2022-10-26T11:53:56;7.73;;;2.17;;
25409;SDS011;13339;50.840;4.346;2022-10-26T11:56:30;5.33;;;1.70;;
25409;SDS011;13339;50.840;4.346;2022-10-26T11:58:59;4.63;;;1.90;;
25409;SDS011;13339;50.840;4.346;2022-10-26T12:01:26;7.33;;;2.03;;
25409;SDS011;13339;50.840;4.346;2022-10-26T12:03:53;7.47;;;2.40;;
25409;SDS011;13339;50.840;4.346;2022-10-26T12:06:23;6.37;;;2.50;;
25409;SDS011;13339;50.840;4.346;2022-10-26T12:11:56;6.87;;;2.27;;
25409;SDS011;13339;50.840;4.346;2022-10-26T12:17:25;7.43;;;2.40;;
25409;SDS011;13339;50.840;4.346;2022-10-26T12:20:06;6.73;;;2.17;;
25409;SDS011;13339;50.840;4.346;2022-10-26T12:22:41;6.83;;;2.40;;
25409;SDS011;13339;50.840;4.346;2022-10-26T12:32:47;8.53;;;2.30;;
25409;SDS011;13339;50.840;4.346;2022-10-26T12:38:02;6.43;;;2.33;;
25409;SDS011;13339;50.840;4.346;2022-10-26T12:43:33;6.53;;;1.80;;
25409;SDS011;13339;50.840;4.346;2022-10-26T12:48:47;7.47;;;1.87;;
25409;SDS011;13339;50.840;4.346;2022-10-26T12:56:23;7.30;;;1.73;;
25409;SDS011;13339;50.840;4.346;2022-10-26T12:59:40;6.13;;;2.07;;
25409;SDS011;13339;50.840;4.346;2022-10-26T13:07:47;8.23;;;2.17;;
25409;SDS011;13339;50.840;4.346;2022-10-26T13:12:55;13.50;;;2.00;;
25409;SDS011;13339;50.840;4.346;2022-10-26T13:18:24;11.47;;;1.80;;
25409;SDS011;13339;50.840;4.346;2022-10-26T13:20:52;20.03;;;2.97;;
25409;SDS011;13339;50.840;4.346;2022-10-26T13:23:25;9.63;;;1.90;;
25409;SDS011;13339;50.840;4.346;2022-10-26T13:30:53;4.50;;;1.93;;
25409;SDS011;13339;50.840;4.346;2022-10-26T13:33:19;5.80;;;1.73;;
25409;SDS011;13339;50.840;4.346;2022-10-26T13:35:49;6.47;;;1.90;;
25409;SDS011;13339;50.840;4.346;2022-10-26T13:38:18;12.20;;;2.30;;
25409;SDS011;13339;50.840;4.346;2022-10-26T13:40:46;9.97;;;1.97;;
25409;SDS011;13339;50.840;4.346;2022-10-26T13:43:18;6.63;;;1.80;;
25409;SDS011;13339;50.840;4.346;2022-10-26T13:48:37;4.27;;;1.87;;
25409;SDS011;13339;50.840;4.346;2022-10-26T13:51:09;6.13;;;1.70;;
25409;SDS011;13339;50.840;4.346;2022-10-26T13:53:46;7.33;;;2.20;;
25409;SDS011;13339;50.840;4.346;2022-10-26T13:59:00;6.13;;;1.80;;
25409;SDS011;13339;50.840;4.346;2022-10-26T14:01:28;8.67;;;2.00;;
25409;SDS011;13339;50.840;4.346;2022-10-26T14:03:55;8.13;;;1.77;;
25409;SDS011;13339;50.840;4.346;2022-10-26T14:06:29;6.30;;;1.70;;
25409;SDS011;13339;50.840;4.346;2022-10-26T14:08:59;8.70;;;1.90;;
25409;SDS011;13339;50.840;4.346;2022-10-26T14:11:34;4.30;;;1.70;;
25409;SDS011;13339;50.840;4.346;2022-10-26T14:14:16;4.80;;;1.80;;
25409;SDS011;13339;50.840;4.346;2022-10-26T14:16:56;9.57;;;1.83;;
25409;SDS011;13339;50.840;4.346;2022-10-26T14:19:27;7.07;;;1.90;;
25409;SDS011;13339;50.840;4.346;2022-10-26T14:21:54;7.37;;;2.37;;
25409;SDS011;13339;50.840;4.346;2022-10-26T14:24:22;4.60;;;1.73;;
25409;SDS011;13339;50.840;4.346;2022-10-26T14:26:48;10.03;;;2.40;;
25409;SDS011;13339;50.840;4.346;2022-10-26T14:29:15;9.33;;;2.33;;
25409;SDS011;13339;50.840;4.346;2022-10-26T14:31:42;8.27;;;1.90;;
25409;SDS011;13339;50.840;4.346;2022-10-26T14:34:08;6.03;;;1.90;;
25409;SDS011;13339;50.840;4.346;2022-10-26T14:36:37;8.93;;;2.17;;
25409;SDS011;13339;50.840;4.346;2022-10-26T14:39:38;6.90;;;1.70;;
25409;SDS011;13339;50.840;4.346;2022-10-26T14:42:12;5.17;;;1.97;;
25409;SDS011;13339;50.840;4.346;2022-10-26T14:45:00;5.70;;;1.60;;
25409;SDS011;13339;50.840;4.346;2022-10-26T14:47:27;12.07;;;2.33;;
25409;SDS011;13339;50.840;4.346;2022-10-26T14:49:54;5.83;;;1.60;;
25409;SDS011;13339;50.840;4.346;2022-10-26T14:52:21;10.67;;;2.40;;
25409;SDS011;13339;50.840;4.346;2022-10-26T14:57:29;7.27;;;1.80;;
25409;SDS011;13339;50.840;4.346;2022-10-26T15:00:09;8.90;;;1.77;;
25409;SDS011;13339;50.840;4.346;2022-10-26T15:02:39;9.73;;;2.20;;
25409;SDS011;13339;50.840;4.346;2022-10-26T15:07:56;5.37;;;1.70;;
25409;SDS011;13339;50.840;4.346;2022-10-26T15:13:07;5.57;;;1.80;;
25409;SDS011;13339;50.840;4.346;2022-10-26T15:15:32;6.43;;;1.80;;
25409;SDS011;13339;50.840;4.346;2022-10-26T15:17:58;9.13;;;2.27;;
25409;SDS011;13339;50.840;4.346;2022-10-26T15:20:25;3.53;;;1.57;;
25409;SDS011;13339;50.840;4.346;2022-10-26T15:22:53;8.03;;;2.03;;
25409;SDS011;13339;50.840;4.346;2022-10-26T15:25:27;9.63;;;1.80;;
25409;SDS011;13339;50.840;4.346;2022-10-26T15:28:09;8.93;;;2.30;;
25409;SDS011;13339;50.840;4.346;2022-10-26T15:33:43;14.23;;;2.60;;
25409;SDS011;13339;50.840;4.346;2022-10-26T15:36:28;9.50;;;1.60;;
25409;SDS011;13339;50.840;4.346;2022-10-26T15:38:56;5.40;;;1.70;;
25409;SDS011;13339;50.840;4.346;2022-10-26T15:43:57;5.47;;;2.23;;
25409;SDS011;13339;50.840;4.346;2022-10-26T15:46:28;8.50;;;1.80;;
25409;SDS011;13339;50.840;4.346;2022-10-26T15:48:56;8.63;;;1.63;;
25409;SDS011;13339;50.840;4.346;2022-10-26T15:51:24;9.37;;;1.93;;
25409;SDS011;13339;50.840;4.346;2022-10-26T15:53:50;5.67;;;1.70;;
25409;SDS011;13339;50.840;4.346;2022-10-26T15:56:16;8.43;;;2.23;;
25409;SDS011;13339;50.840;4.346;2022-10-26T15:58:44;5.97;;;1.67;;
25409;SDS011;13339;50.840;4.346;2022-10-26T16:01:14;3.77;;;1.53;;
25409;SDS011;13339;50.840;4.346;2022-10-26T16:03:41;12.53;;;2.00;;
25409;SDS011;13339;50.840;4.346;2022-10-26T16:06:07;9.27;;;1.80;;
25409;SDS011;13339;50.840;4.346;2022-10-26T16:08:42;6.67;;;2.07;;
25409;SDS011;13339;50.840;4.346;2022-10-26T16:11:12;8.73;;;2.40;;
25409;SDS011;13339;50.840;4.346;2022-10-26T16:13:37;5.13;;;1.93;;
25409;SDS011;13339;50.840;4.346;2022-10-26T16:16:03;6.77;;;1.90;;
25409;SDS011;13339;50.840;4.346;2022-10-26T16:18:28;11.40;;;2.23;;
25409;SDS011;13339;50.840;4.346;2022-10-26T16:20:54;10.47;;;2.30;;
25409;SDS011;13339;50.840;4.346;2022-10-26T16:23:20;10.07;;;2.23;;
25409;SDS011;13339;50.840;4.346;2022-10-26T16:25:45;6.63;;;1.60;;
25409;SDS011;13339;50.840;4.346;2022-10-26T16:28:12;4.03;;;2.13;;
25409;SDS011;13339;50.840;4.346;2022-10-26T16:30:39;8.17;;;2.27;;
25409;SDS011;13339;50.840;4.346;2022-10-26T16:33:05;5.00;;;2.30;;
25409;SDS011;13339;50.840;4.346;2022-10-26T16:35:31;14.00;;;3.70;;
25409;SDS011;13339;50.840;4.346;2022-10-26T16:37:56;5.67;;;2.47;;
25409;SDS011;13339;50.840;4.346;2022-10-26T16:40:22;11.57;;;3.13;;
25409;SDS011;13339;50.840;4.346;2022-10-26T16:42:47;8.13;;;3.07;;
25409;SDS011;13339;50.840;4.346;2022-10-26T16:45:13;4.97;;;2.93;;
25409;SDS011;13339;50.840;4.346;2022-10-26T16:47:39;6.57;;;2.70;;
25409;SDS011;13339;50.840;4.346;2022-10-26T16:50:06;10.30;;;2.83;;
25409;SDS011;13339;50.840;4.346;2022-10-26T16:52:33;7.00;;;2.70;;
25409;SDS011;13339;50.840;4.346;2022-10-26T16:54:59;12.20;;;2.97;;
25409;SDS011;13339;50.840;4.346;2022-10-26T16:57:25;10.07;;;3.00;;
25409;SDS011;13339;50.840;4.346;2022-10-26T16:59:51;7.53;;;3.20;;
25409;SDS011;13339;50.840;4.346;2022-10-26T17:02:16;8.37;;;3.10;;
25409;SDS011;13339;50.840;4.346;2022-10-26T17:04:42;6.73;;;2.77;;
25409;SDS011;13339;50.840;4.346;2022-10-26T17:07:08;10.47;;;2.90;;
25409;SDS011;13339;50.840;4.346;2022-10-26T17:09:34;6.30;;;3.20;;
25409;SDS011;13339;50.840;4.346;2022-10-26T17:11:59;3.87;;;2.27;;
25409;SDS011;13339;50.840;4.346;2022-10-26T17:14:25;8.13;;;2.90;;
25409;SDS011;13339;50.840;4.346;2022-10-26T17:16:51;8.77;;;3.10;;
25409;SDS011;13339;50.840;4.346;2022-10-26T17:19:16;6.50;;;2.80;;
25409;SDS011;13339;50.840;4.346;2022-10-26T17:21:42;8.13;;;3.00;;
25409;SDS011;13339;50.840;4.346;2022-10-26T17:24:08;13.17;;;3.17;;
25409;SDS011;13339;50.840;4.346;2022-10-26T17:26:34;5.47;;;2.83;;
25409;SDS011;13339;50.840;4.346;2022-10-26T17:29:00;6.60;;;2.90;;
25409;SDS011;13339;50.840;4.346;2022-10-26T17:31:25;20.70;;;8.07;;
25409;SDS011;13339;50.840;4.346;2022-10-26T17:33:51;12.23;;;4.50;;
25409;SDS011;13339;50.840;4.346;2022-10-26T17:36:18;8.57;;;4.60;;
25409;SDS011;13339;50.840;4.346;2022-10-26T17:38:46;15.13;;;4.60;;
25409;SDS011;13339;50.840;4.346;2022-10-26T17:41:14;7.37;;;4.13;;
25409;SDS011;13339;50.840;4.346;2022-10-26T17:43:41;12.43;;;5.33;;
25409;SDS011;13339;50.840;4.346;2022-10-26T17:46:11;10.30;;;5.50;;